Date,TemperatureHighF,TemperatureAvgF,TemperatureLowF,DewpointHighF,DewpointAvgF,DewpointLowF,HumidityHigh,HumidityAvg,HumidityLow,PressureMaxIn,PressureMinIn,WindSpeedMaxMPH,WindSpeedAvgMPH,GustSpeedMaxMPH,PrecipitationSumIn
2012-1-4,47.2,44.1,32.0,32.0,28.0,23.1,100,54,40,30.92,30.15,14,0,14,5.91
2012-1-5,59.9,48.2,41.6,39.2,31.9,22.5,77,54,41,30.15,29.98,3,0,3,0.00
2012-1-6,64.6,50.8,39.4,47.8,41.4,34.3,87,71,48,30.12,30.00,3,0,3,0.00
2012-1-7,65.5,57.8,53.5,53.8,48.7,45.8,75,72,66,30.02,29.97,1,0,1,0.00
2012-1-8,65.5,65.5,64.8,56.3,53.8,53.8,74,66,66,30.16,29.97,1,1,1,0.00
2012-1-18,62.6,53.9,47.2,52.7,45.9,39.3,79,74,69,30.00,29.88,2,0,2,0.00
2012-1-19,57.4,47.2,39.2,46.2,39.5,32.0,86,75,66,30.15,29.97,2,0,2,0.00
2012-1-20,64.8,54.2,43.6,56.9,48.0,40.3,93,81,57,30.13,30.03,3,0,3,0.00
2012-1-21,66.1,61.6,56.3,58.2,56.1,52.7,88,82,72,30.03,29.88,5,1,5,0.28
2012-1-22,56.5,51.6,47.2,54.5,48.3,43.3,93,89,84,30.22,29.97,3,0,3,0.00
2012-1-23,63.9,55.6,46.1,59.5,52.9,43.6,95,91,85,30.18,29.97,3,0,3,0.00
2012-1-24,69.5,62.7,55.1,63.8,59.5,52.2,94,89,81,30.15,29.99,3,0,3,0.00
2012-1-25,67.7,56.3,47.5,58.3,51.4,44.9,91,84,71,30.22,30.10,2,0,2,0.01
2012-1-26,65.2,60.4,56.9,62.0,57.8,53.0,93,91,85,30.10,29.80,3,0,3,0.00
2012-1-27,65.5,63.6,60.1,62.6,59.9,47.0,92,88,56,29.88,29.71,4,1,4,0.08
2012-1-28,134.6,56.0,50.4,41.7,38.9,0.0,67,60,54,30.11,0.00,0,0,0,7.37
2012-1-29,50.8,45.2,42.1,35.8,35.2,34.6,76,68,56,30.29,30.26,0,0,0,0.08
2012-1-30,64.3,47.8,36.9,35.4,32.0,27.0,77,58,25,30.42,30.29,3,0,3,0.08
2012-2-2,77.0,67.1,60.8,60.8,55.3,48.7,85,68,46,30.09,29.98,4,0,4,0.08
2012-2-3,65.3,59.1,52.6,49.8,45.3,34.8,69,60,50,30.36,30.09,3,1,3,0.01
2012-2-4,71.6,62.5,55.3,58.9,53.7,45.3,86,73,62,30.32,30.01,3,0,3,0.08
2012-2-5,78.1,65.4,54.4,63.8,57.9,48.4,88,78,55,30.08,29.86,3,0,3,0.08
2012-2-6,58.0,53.3,49.3,49.4,45.7,42.7,82,75,70,30.16,30.05,2,0,2,0.08
2012-2-7,59.2,53.0,46.8,48.1,44.6,40.8,80,73,64,30.10,30.04,2,0,2,0.08
2012-2-8,67.0,52.5,41.4,45.8,40.2,36.0,86,65,39,30.09,29.97,2,0,2,0.08
2012-2-9,56.5,48.7,43.4,40.0,36.7,33.0,74,64,48,30.23,30.08,3,0,3,0.08
2012-2-10,61.6,54.5,47.9,55.1,47.5,40.0,85,77,70,30.16,29.82,2,0,2,0.08
2012-2-11,60.7,51.5,34.7,48.3,35.9,11.1,84,58,29,30.09,29.69,4,1,4,0.08
2012-2-12,48.1,37.7,28.8,17.9,14.0,8.5,48,38,25,30.26,30.07,3,0,3,0.08
2012-2-13,53.3,38.7,29.3,26.4,20.8,17.2,65,50,33,30.26,30.15,3,0,3,0.08
2012-2-16,61.2,60.8,60.5,57.9,57.6,57.4,90,89,88,29.95,29.94,0,0,0,0.08
2012-2-17,67.0,59.8,51.8,58.6,53.2,46.5,91,79,59,30.04,29.92,2,0,2,0.08
2012-2-18,51.8,51.2,50.8,46.5,46.3,46.1,84,83,82,30.00,29.99,0,0,0,0.00
2012-3-3,63.4,52.7,32.0,59.3,50.1,32.0,100,91,87,32.37,29.74,1,0,1,11.25
2012-3-15,76.9,76.7,76.7,65.3,65.3,65.3,68,68,68,30.23,30.23,1,0,1,0.00
2012-3-19,78.7,78.0,77.2,66.7,66.4,0.0,70,67,65,30.14,30.13,1,0,1,13.67
2012-4-6,59.8,54.6,32.0,47.6,44.3,0.0,83,68,58,30.00,29.80,52,1,52,13.68
2012-4-7,72.4,57.9,45.0,46.8,42.7,34.7,87,61,29,30.19,30.00,2,0,2,13.67
2012-4-8,80.5,66.2,54.7,58.6,52.6,46.7,80,63,40,30.14,29.95,4,0,4,13.67
2012-4-9,78.3,68.5,60.5,58.6,51.6,43.5,76,57,32,30.03,29.89,3,0,3,13.67
2012-4-10,81.5,69.2,58.9,58.3,52.5,43.0,80,58,29,29.98,29.82,3,0,3,13.67
2012-4-11,66.2,66.2,66.1,54.4,53.9,53.6,66,65,64,29.84,29.84,2,0,2,0.00
2012-5-18,67.5,66.8,32.0,64.6,63.1,0.0,91,88,65,30.52,29.82,52,1,52,16.92
2012-5-19,73.1,67.1,61.6,54.7,49.8,45.8,68,55,40,29.98,29.91,3,1,3,0.03
2012-5-20,80.3,69.0,58.7,65.3,58.8,51.5,83,71,55,29.97,29.88,5,1,5,0.14
2012-5-21,82.3,73.4,65.9,69.8,65.7,62.2,91,77,62,29.92,29.80,3,0,3,0.00
2012-5-22,86.4,76.2,68.6,74.2,68.3,62.1,91,77,61,29.84,29.73,3,0,3,0.00
2012-5-23,86.8,76.7,67.0,71.7,67.8,61.0,86,75,58,29.85,29.74,3,0,3,0.03
2012-5-24,88.2,78.6,70.7,75.7,71.1,67.2,92,79,62,29.93,29.84,2,0,2,0.00
2012-5-25,75.4,73.2,71.6,70.3,69.3,68.3,91,88,84,29.97,29.90,1,0,1,0.00
2012-5-27,79.9,78.4,77.4,72.6,72.3,71.9,84,82,78,29.93,29.90,3,1,3,17.90
2012-5-28,87.5,80.1,73.8,76.5,73.0,68.9,90,79,68,29.95,29.88,3,1,3,0.05
2012-5-29,85.0,78.2,74.2,74.5,71.9,68.8,91,81,68,29.91,29.65,3,1,3,0.49
2012-5-30,74.9,73.4,70.7,72.4,70.6,67.2,92,91,89,29.65,29.46,3,1,3,0.38
2012-5-31,81.5,79.2,77.9,72.3,71.5,70.6,83,77,72,29.82,29.78,2,0,2,0.01
2012-6-1,87.1,79.6,72.9,75.4,72.1,67.9,89,78,66,29.82,29.71,4,0,4,0.08
2012-6-2,87.8,78.8,70.4,72.9,65.5,56.4,90,67,41,29.84,29.69,3,0,3,0.01
2012-6-3,89.3,76.2,64.1,68.1,59.0,55.0,75,57,34,29.91,29.80,3,0,3,0.00
2012-6-4,79.6,76.3,71.8,71.3,68.6,66.6,87,77,67,29.81,29.63,3,0,3,0.49
2012-6-5,76.5,70.7,0.0,67.4,63.4,0.0,83,77,66,30.92,29.65,154,1,154,20.64
2012-6-6,75.8,70.2,67.5,67.4,65.3,61.8,93,85,72,29.90,29.73,3,0,3,2.06
2012-6-7,81.2,72.2,63.4,66.2,62.4,59.4,88,72,53,29.97,29.88,4,0,4,0.00
2012-6-8,84.6,74.9,67.1,66.5,63.1,60.9,83,68,50,29.98,29.91,2,0,2,0.00
2012-6-9,85.5,76.0,66.6,70.9,65.7,61.3,87,71,57,30.03,29.95,2,0,2,0.00
2012-6-10,85.1,78.4,75.1,73.9,69.9,65.5,87,76,69,30.08,29.96,2,0,2,0.26
2012-6-27,95.2,71.6,0.0,95.2,54.9,0.0,100,61,40,31.22,29.83,119,20,119,23.66
2012-6-28,97.6,78.4,32.0,71.7,65.2,32.0,100,67,39,32.16,29.90,0,0,0,23.66
2012-6-29,81.2,76.4,74.5,70.5,69.1,67.2,81,78,70,29.90,29.83,0,0,0,0.00
2012-7-11,79.4,76.7,74.5,77.3,75.0,72.8,100,95,93,30.00,0.74,0,0,0,24.32
2012-7-12,75.2,74.8,74.3,73.7,73.3,72.8,95,95,95,29.99,29.98,0,0,0,0.00
2012-7-15,114.3,93.4,32.0,82.9,75.1,32.0,100,59,34,30.82,30.02,114,1,114,25.48
2012-7-16,92.5,81.5,72.5,77.7,73.3,68.9,92,77,59,30.05,29.89,0,0,0,0.56
2012-7-17,92.0,82.6,77.4,78.7,74.4,70.1,87,77,62,29.94,29.87,0,0,0,0.00
2012-7-18,91.1,82.1,76.3,78.2,74.7,71.1,88,79,62,29.99,29.90,0,0,0,0.00
2012-7-19,88.2,81.8,78.1,80.5,75.2,71.9,90,81,69,30.03,29.94,0,0,0,0.20
2012-7-20,90.4,81.9,77.4,78.9,75.1,73.0,88,80,67,29.99,29.93,0,0,0,0.00
2012-7-22,91.4,87.0,81.7,81.1,77.9,75.4,82,75,67,30.13,30.08,0,0,0,0.00
2012-7-23,92.2,84.4,77.0,80.2,76.1,72.3,88,77,62,30.14,30.02,0,0,0,0.00
2012-7-24,95.8,85.1,73.8,81.2,75.8,70.0,92,75,57,30.03,29.83,0,0,0,0.80
2012-7-25,89.6,80.7,72.7,80.1,75.9,69.9,95,86,67,29.90,29.82,0,0,0,0.06
2012-7-26,93.6,85.7,79.9,83.8,79.4,76.8,93,82,68,29.87,29.81,0,0,0,0.00
2012-7-27,94.3,85.2,79.6,83.4,77.5,71.2,89,78,63,29.91,29.82,0,0,0,0.00
2012-7-28,92.2,83.1,72.4,82.3,76.6,68.8,94,81,69,29.96,29.85,0,0,0,0.70
2012-7-29,92.0,80.8,75.6,83.4,76.8,72.3,95,88,70,29.92,29.82,0,0,0,0.49
2012-7-30,81.2,77.0,74.2,78.0,74.9,71.8,96,93,87,29.91,29.80,0,0,0,0.07
2012-7-31,76.7,71.8,70.7,75.3,70.3,69.2,96,95,94,29.91,29.84,0,0,0,0.01
2012-8-28,76.1,76.1,76.1,76.1,65.5,0.0,100,100,100,29.92,29.88,0,0,0,36.66
2012-8-29,83.2,77.5,72.2,76.1,6.5,-33.6,100,35,1,30.00,29.85,0,0,0,1.59
2012-8-30,77.9,74.7,71.6,-30.2,-32.2,-34.0,1,1,1,30.09,29.92,0,0,0,0.41
2012-8-31,84.1,77.5,72.9,-26.5,-30.4,-33.2,1,1,1,30.17,30.06,0,0,0,0.00
2012-9-1,90.2,80.9,75.4,-22.9,-28.4,-31.7,1,1,1,30.10,29.97,0,0,0,0.00
2012-9-2,90.2,82.1,77.6,52.9,-8.5,-30.4,30,6,1,30.00,29.88,0,0,0,0.01
2012-9-3,87.8,81.1,77.0,65.0,9.6,-30.7,49,16,1,29.98,29.91,0,0,0,0.01
2012-9-4,87.7,80.1,75.8,67.2,39.6,4.2,51,27,6,29.95,29.87,0,0,0,0.00
2012-9-5,88.6,80.9,76.3,69.8,34.5,-30.8,55,26,1,29.92,29.84,0,0,0,0.01
2012-9-6,90.0,80.8,75.6,72.7,34.0,-31.6,57,28,1,29.92,29.83,0,0,0,0.01
2012-9-7,86.8,78.4,76.0,63.4,29.5,15.6,46,18,10,29.89,29.82,0,0,0,0.00
2012-9-10,67.3,66.6,65.9,38.7,36.2,32.8,35,33,29,30.06,30.05,0,0,0,0.00
2012-9-11,79.9,70.5,63.4,63.7,46.1,19.0,64,45,17,30.19,30.05,0,0,0,0.01
2012-9-12,79.2,71.1,64.1,64.9,56.9,47.1,66,61,54,30.23,30.15,0,0,0,0.01
2012-9-13,81.7,73.9,68.4,66.3,52.8,31.2,61,49,24,30.19,30.10,0,0,0,0.00
2012-9-14,83.2,74.2,67.7,67.4,49.4,25.1,60,43,19,30.13,30.04,0,0,0,0.00
2012-9-15,83.9,74.1,67.0,67.9,32.0,-36.7,59,31,1,30.09,30.00,0,0,0,0.00
2012-9-16,72.4,71.7,71.3,34.6,27.7,21.1,25,20,15,30.04,30.02,0,0,0,0.00